sensor_id;sensor_type;location;lat;lon;timestamp;P1;durP1;ratioP1;P2;durP2;ratioP2
56718;SDS011;42597;40.636;0.278;2024-01-15T00:00:17;8.85;;;2.88;;
56718;SDS011;42597;40.636;0.278;2024-01-15T00:02:42;7.43;;;2.75;;
56718;SDS011;42597;40.636;0.278;2024-01-15T00:05:08;9.82;;;3.25;;
56718;SDS011;42597;40.636;0.278;2024-01-15T00:07:35;3.78;;;1.60;;
56718;SDS011;42597;40.636;0.278;2024-01-15T00:10:01;17.55;;;8.40;;
56718;SDS011;42597;40.636;0.278;2024-01-15T00:12:27;6.35;;;2.35;;
56718;SDS011;42597;40.636;0.278;2024-01-15T00:14:53;7.32;;;3.47;;
56718;SDS011;42597;40.636;0.278;2024-01-15T00:17:19;6.47;;;2.15;;
56718;SDS011;42597;40.636;0.278;2024-01-15T00:19:44;7.65;;;3.13;;
56718;SDS011;42597;40.636;0.278;2024-01-15T00:22:10;4.47;;;1.85;;
56718;SDS011;42597;40.636;0.278;2024-01-15T00:24:36;10.70;;;2.00;;
56718;SDS011;42597;40.636;0.278;2024-01-15T00:27:01;5.80;;;3.28;;
56718;SDS011;42597;40.636;0.278;2024-01-15T00:29:27;7.43;;;2.67;;
56718;SDS011;42597;40.636;0.278;2024-01-15T00:31:53;8.35;;;2.70;;
56718;SDS011;42597;40.636;0.278;2024-01-15T00:34:18;5.47;;;2.17;;
56718;SDS011;42597;40.636;0.278;2024-01-15T00:36:44;6.35;;;2.38;;
56718;SDS011;42597;40.636;0.278;2024-01-15T00:39:09;8.48;;;3.55;;
56718;SDS011;42597;40.636;0.278;2024-01-15T00:41:35;6.07;;;3.30;;
56718;SDS011;42597;40.636;0.278;2024-01-15T00:44:01;7.65;;;3.78;;
56718;SDS011;42597;40.636;0.278;2024-01-15T00:46:28;4.97;;;2.03;;
56718;SDS011;42597;40.636;0.278;2024-01-15T00:48:53;8.90;;;2.50;;
56718;SDS011;42597;40.636;0.278;2024-01-15T00:51:19;8.07;;;2.08;;
56718;SDS011;42597;40.636;0.278;2024-01-15T00:53:45;5.72;;;1.58;;
56718;SDS011;42597;40.636;0.278;2024-01-15T00:56:10;5.68;;;1.60;;
56718;SDS011;42597;40.636;0.278;2024-01-15T00:58:36;11.48;;;5.20;;
56718;SDS011;42597;40.636;0.278;2024-01-15T01:01:02;8.55;;;2.25;;
56718;SDS011;42597;40.636;0.278;2024-01-15T01:03:27;11.35;;;4.07;;
56718;SDS011;42597;40.636;0.278;2024-01-15T01:05:53;6.82;;;2.10;;
56718;SDS011;42597;40.636;0.278;2024-01-15T01:08:19;5.53;;;2.47;;
56718;SDS011;42597;40.636;0.278;2024-01-15T01:10:44;5.80;;;2.42;;
56718;SDS011;42597;40.636;0.278;2024-01-15T01:13:10;11.65;;;6.95;;
56718;SDS011;42597;40.636;0.278;2024-01-15T01:15:36;5.32;;;2.17;;
56718;SDS011;42597;40.636;0.278;2024-01-15T01:18:02;7.25;;;3.50;;
56718;SDS011;42597;40.636;0.278;2024-01-15T01:20:28;7.68;;;2.50;;
56718;SDS011;42597;40.636;0.278;2024-01-15T01:22:53;6.55;;;2.38;;
56718;SDS011;42597;40.636;0.278;2024-01-15T01:25:19;7.93;;;2.70;;
56718;SDS011;42597;40.636;0.278;2024-01-15T01:27:45;6.10;;;2.47;;
56718;SDS011;42597;40.636;0.278;2024-01-15T01:30:10;6.03;;;2.97;;
56718;SDS011;42597;40.636;0.278;2024-01-15T01:32:36;4.63;;;2.13;;
56718;SDS011;42597;40.636;0.278;2024-01-15T01:35:01;3.85;;;2.22;;
56718;SDS011;42597;40.636;0.278;2024-01-15T01:37:27;7.47;;;4.00;;
56718;SDS011;42597;40.636;0.278;2024-01-15T01:39:53;12.00;;;3.65;;
56718;SDS011;42597;40.636;0.278;2024-01-15T01:42:18;7.30;;;3.03;;
56718;SDS011;42597;40.636;0.278;2024-01-15T01:44:44;10.52;;;4.85;;
56718;SDS011;42597;40.636;0.278;2024-01-15T01:47:09;8.75;;;3.15;;
56718;SDS011;42597;40.636;0.278;2024-01-15T01:49:35;7.97;;;3.10;;
56718;SDS011;42597;40.636;0.278;2024-01-15T01:52:02;7.43;;;3.25;;
56718;SDS011;42597;40.636;0.278;2024-01-15T01:54:29;3.78;;;1.90;;
56718;SDS011;42597;40.636;0.278;2024-01-15T01:56:57;3.65;;;1.88;;
56718;SDS011;42597;40.636;0.278;2024-01-15T01:59:23;4.40;;;1.63;;
56718;SDS011;42597;40.636;0.278;2024-01-15T02:01:52;4.15;;;1.77;;
56718;SDS011;42597;40.636;0.278;2024-01-15T02:04:19;5.10;;;2.08;;
56718;SDS011;42597;40.636;0.278;2024-01-15T02:06:45;5.88;;;2.20;;
56718;SDS011;42597;40.636;0.278;2024-01-15T02:09:10;4.65;;;2.10;;
56718;SDS011;42597;40.636;0.278;2024-01-15T02:11:40;2.88;;;1.38;;
56718;SDS011;42597;40.636;0.278;2024-01-15T02:14:06;6.75;;;2.40;;
56718;SDS011;42597;40.636;0.278;2024-01-15T02:16:32;4.35;;;1.88;;
56718;SDS011;42597;40.636;0.278;2024-01-15T02:18:58;6.35;;;2.13;;
56718;SDS011;42597;40.636;0.278;2024-01-15T02:21:23;6.15;;;2.13;;
56718;SDS011;42597;40.636;0.278;2024-01-15T02:23:51;3.03;;;1.92;;
56718;SDS011;42597;40.636;0.278;2024-01-15T02:26:17;8.52;;;2.00;;
56718;SDS011;42597;40.636;0.278;2024-01-15T02:28:43;4.38;;;1.52;;
56718;SDS011;42597;40.636;0.278;2024-01-15T02:31:09;4.60;;;1.98;;
56718;SDS011;42597;40.636;0.278;2024-01-15T02:33:35;5.22;;;1.85;;
56718;SDS011;42597;40.636;0.278;2024-01-15T02:36:01;4.18;;;2.08;;
56718;SDS011;42597;40.636;0.278;2024-01-15T02:38:27;5.47;;;1.70;;
56718;SDS011;42597;40.636;0.278;2024-01-15T02:40:53;6.70;;;1.90;;
56718;SDS011;42597;40.636;0.278;2024-01-15T02:43:18;6.97;;;2.60;;
56718;SDS011;42597;40.636;0.278;2024-01-15T02:45:44;4.05;;;1.88;;
56718;SDS011;42597;40.636;0.278;2024-01-15T02:48:11;4.22;;;1.60;;
56718;SDS011;42597;40.636;0.278;2024-01-15T02:50:36;5.32;;;2.40;;
56718;SDS011;42597;40.636;0.278;2024-01-15T02:53:02;3.90;;;2.05;;
56718;SDS011;42597;40.636;0.278;2024-01-15T02:55:28;5.47;;;2.22;;
56718;SDS011;42597;40.636;0.278;2024-01-15T02:57:54;7.57;;;2.90;;
56718;SDS011;42597;40.636;0.278;2024-01-15T03:00:20;4.28;;;2.13;;
56718;SDS011;42597;40.636;0.278;2024-01-15T03:02:45;7.40;;;2.63;;
56718;SDS011;42597;40.636;0.278;2024-01-15T03:05:11;3.55;;;1.65;;
56718;SDS011;42597;40.636;0.278;2024-01-15T03:07:37;2.83;;;1.30;;
56718;SDS011;42597;40.636;0.278;2024-01-15T03:10:04;5.55;;;2.78;;
56718;SDS011;42597;40.636;0.278;2024-01-15T03:12:31;5.95;;;1.77;;
56718;SDS011;42597;40.636;0.278;2024-01-15T03:14:56;6.15;;;2.60;;
56718;SDS011;42597;40.636;0.278;2024-01-15T03:17:22;3.63;;;1.63;;
56718;SDS011;42597;40.636;0.278;2024-01-15T03:19:48;5.45;;;2.42;;
56718;SDS011;42597;40.636;0.278;2024-01-15T03:22:15;4.70;;;2.13;;
56718;SDS011;42597;40.636;0.278;2024-01-15T03:24:43;6.60;;;2.22;;
56718;SDS011;42597;40.636;0.278;2024-01-15T03:27:10;6.30;;;2.13;;
56718;SDS011;42597;40.636;0.278;2024-01-15T03:29:35;7.07;;;3.35;;
56718;SDS011;42597;40.636;0.278;2024-01-15T03:32:01;8.63;;;4.25;;
56718;SDS011;42597;40.636;0.278;2024-01-15T03:34:26;10.25;;;3.95;;
56718;SDS011;42597;40.636;0.278;2024-01-15T03:36:52;8.27;;;3.28;;
56718;SDS011;42597;40.636;0.278;2024-01-15T03:39:18;5.38;;;3.03;;
56718;SDS011;42597;40.636;0.278;2024-01-15T03:41:43;5.32;;;1.90;;
56718;SDS011;42597;40.636;0.278;2024-01-15T03:44:09;4.18;;;2.20;;
56718;SDS011;42597;40.636;0.278;2024-01-15T03:46:34;6.60;;;2.58;;
56718;SDS011;42597;40.636;0.278;2024-01-15T03:49:00;7.75;;;3.22;;
56718;SDS011;42597;40.636;0.278;2024-01-15T03:51:26;5.00;;;2.53;;
56718;SDS011;42597;40.636;0.278;2024-01-15T03:53:51;5.03;;;2.28;;
56718;SDS011;42597;40.636;0.278;2024-01-15T03:56:17;4.10;;;1.85;;
56718;SDS011;42597;40.636;0.278;2024-01-15T03:58:42;4.15;;;2.17;;
56718;SDS011;42597;40.636;0.278;2024-01-15T04:01:11;5.40;;;1.90;;
56718;SDS011;42597;40.636;0.278;2024-01-15T04:03:37;3.38;;;1.58;;
56718;SDS011;42597;40.636;0.278;2024-01-15T04:06:03;4.15;;;1.52;;
56718;SDS011;42597;40.636;0.278;2024-01-15T04:08:29;4.95;;;1.88;;
56718;SDS011;42597;40.636;0.278;2024-01-15T04:10:55;5.97;;;2.05;;
56718;SDS011;42597;40.636;0.278;2024-01-15T04:13:21;2.92;;;1.60;;
56718;SDS011;42597;40.636;0.278;2024-01-15T04:15:47;3.50;;;1.65;;
56718;SDS011;42597;40.636;0.278;2024-01-15T04:18:12;3.05;;;1.60;;
56718;SDS011;42597;40.636;0.278;2024-01-15T04:20:38;3.60;;;1.75;;
56718;SDS011;42597;40.636;0.278;2024-01-15T04:23:04;3.42;;;1.45;;
56718;SDS011;42597;40.636;0.278;2024-01-15T04:25:30;6.03;;;2.22;;
56718;SDS011;42597;40.636;0.278;2024-01-15T04:27:56;4.80;;;2.05;;
56718;SDS011;42597;40.636;0.278;2024-01-15T04:30:21;7.05;;;1.70;;
56718;SDS011;42597;40.636;0.278;2024-01-15T04:32:47;5.60;;;1.85;;
56718;SDS011;42597;40.636;0.278;2024-01-15T04:35:13;4.78;;;1.90;;
56718;SDS011;42597;40.636;0.278;2024-01-15T04:37:39;3.17;;;1.42;;
56718;SDS011;42597;40.636;0.278;2024-01-15T04:40:05;3.50;;;1.40;;
56718;SDS011;42597;40.636;0.278;2024-01-15T04:42:31;4.05;;;1.40;;
56718;SDS011;42597;40.636;0.278;2024-01-15T04:44:57;4.25;;;1.55;;
56718;SDS011;42597;40.636;0.278;2024-01-15T04:47:22;5.15;;;1.90;;
56718;SDS011;42597;40.636;0.278;2024-01-15T04:49:48;4.25;;;2.03;;
56718;SDS011;42597;40.636;0.278;2024-01-15T04:52:14;3.15;;;1.58;;
56718;SDS011;42597;40.636;0.278;2024-01-15T04:54:40;1.83;;;1.20;;
56718;SDS011;42597;40.636;0.278;2024-01-15T04:57:06;4.25;;;1.65;;
56718;SDS011;42597;40.636;0.278;2024-01-15T04:59:31;3.47;;;1.52;;
56718;SDS011;42597;40.636;0.278;2024-01-15T05:01:57;3.05;;;1.45;;
56718;SDS011;42597;40.636;0.278;2024-01-15T05:04:22;6.00;;;1.67;;
56718;SDS011;42597;40.636;0.278;2024-01-15T05:06:50;5.20;;;1.77;;
56718;SDS011;42597;40.636;0.278;2024-01-15T05:09:15;4.43;;;1.70;;
56718;SDS011;42597;40.636;0.278;2024-01-15T05:11:43;3.13;;;1.70;;
56718;SDS011;42597;40.636;0.278;2024-01-15T05:14:08;2.45;;;1.45;;
56718;SDS011;42597;40.636;0.278;2024-01-15T05:16:34;3.78;;;1.30;;
56718;SDS011;42597;40.636;0.278;2024-01-15T05:19:00;3.03;;;1.25;;
56718;SDS011;42597;40.636;0.278;2024-01-15T05:21:25;5.28;;;2.05;;
56718;SDS011;42597;40.636;0.278;2024-01-15T05:23:51;2.42;;;1.40;;
56718;SDS011;42597;40.636;0.278;2024-01-15T05:26:16;6.57;;;1.92;;
56718;SDS011;42597;40.636;0.278;2024-01-15T05:28:42;3.50;;;1.75;;
56718;SDS011;42597;40.636;0.278;2024-01-15T05:31:08;4.68;;;1.92;;
56718;SDS011;42597;40.636;0.278;2024-01-15T05:33:34;5.10;;;1.88;;
56718;SDS011;42597;40.636;0.278;2024-01-15T05:35:59;4.80;;;1.73;;
56718;SDS011;42597;40.636;0.278;2024-01-15T05:38:25;3.78;;;1.75;;
56718;SDS011;42597;40.636;0.278;2024-01-15T05:40:51;5.70;;;1.95;;
56718;SDS011;42597;40.636;0.278;2024-01-15T05:43:16;4.97;;;1.45;;
56718;SDS011;42597;40.636;0.278;2024-01-15T05:45:45;4.60;;;1.90;;
56718;SDS011;42597;40.636;0.278;2024-01-15T05:48:11;3.53;;;1.25;;
56718;SDS011;42597;40.636;0.278;2024-01-15T05:50:37;6.60;;;2.05;;
56718;SDS011;42597;40.636;0.278;2024-01-15T05:53:03;3.40;;;1.65;;
56718;SDS011;42597;40.636;0.278;2024-01-15T05:55:29;3.83;;;1.55;;
56718;SDS011;42597;40.636;0.278;2024-01-15T05:57:54;4.28;;;1.80;;
56718;SDS011;42597;40.636;0.278;2024-01-15T06:00:20;5.18;;;2.10;;
56718;SDS011;42597;40.636;0.278;2024-01-15T06:02:46;3.95;;;1.33;;
56718;SDS011;42597;40.636;0.278;2024-01-15T06:05:11;6.07;;;1.48;;
56718;SDS011;42597;40.636;0.278;2024-01-15T06:07:37;10.45;;;1.60;;
56718;SDS011;42597;40.636;0.278;2024-01-15T06:10:03;2.25;;;1.23;;
56718;SDS011;42597;40.636;0.278;2024-01-15T06:12:29;4.10;;;1.50;;
56718;SDS011;42597;40.636;0.278;2024-01-15T06:14:56;3.22;;;1.48;;
56718;SDS011;42597;40.636;0.278;2024-01-15T06:17:21;4.05;;;1.55;;
56718;SDS011;42597;40.636;0.278;2024-01-15T06:19:47;3.65;;;1.70;;
56718;SDS011;42597;40.636;0.278;2024-01-15T06:22:13;2.78;;;1.52;;
56718;SDS011;42597;40.636;0.278;2024-01-15T06:24:38;3.13;;;1.70;;
56718;SDS011;42597;40.636;0.278;2024-01-15T06:27:04;4.30;;;1.42;;
56718;SDS011;42597;40.636;0.278;2024-01-15T06:29:29;2.35;;;1.10;;
56718;SDS011;42597;40.636;0.278;2024-01-15T06:31:55;4.18;;;1.40;;
56718;SDS011;42597;40.636;0.278;2024-01-15T06:34:21;3.50;;;1.60;;
56718;SDS011;42597;40.636;0.278;2024-01-15T06:36:46;3.35;;;1.60;;
56718;SDS011;42597;40.636;0.278;2024-01-15T06:39:12;4.25;;;1.65;;
56718;SDS011;42597;40.636;0.278;2024-01-15T06:41:38;2.38;;;1.20;;
56718;SDS011;42597;40.636;0.278;2024-01-15T06:44:12;2.33;;;1.20;;
56718;SDS011;42597;40.636;0.278;2024-01-15T06:46:41;2.72;;;1.27;;
56718;SDS011;42597;40.636;0.278;2024-01-15T06:49:08;3.13;;;1.50;;
56718;SDS011;42597;40.636;0.278;2024-01-15T06:51:33;2.67;;;1.38;;
56718;SDS011;42597;40.636;0.278;2024-01-15T06:53:59;2.90;;;1.73;;
56718;SDS011;42597;40.636;0.278;2024-01-15T06:56:24;3.75;;;1.55;;
56718;SDS011;42597;40.636;0.278;2024-01-15T06:58:50;3.97;;;1.52;;
56718;SDS011;42597;40.636;0.278;2024-01-15T07:01:15;4.70;;;2.10;;
56718;SDS011;42597;40.636;0.278;2024-01-15T07:03:41;4.95;;;1.52;;
56718;SDS011;42597;40.636;0.278;2024-01-15T07:06:07;5.18;;;1.48;;
56718;SDS011;42597;40.636;0.278;2024-01-15T07:08:32;3.22;;;1.20;;
56718;SDS011;42597;40.636;0.278;2024-01-15T07:10:58;3.53;;;1.50;;
56718;SDS011;42597;40.636;0.278;2024-01-15T07:13:23;3.10;;;1.38;;
56718;SDS011;42597;40.636;0.278;2024-01-15T07:15:49;4.15;;;1.65;;
56718;SDS011;42597;40.636;0.278;2024-01-15T07:18:15;4.43;;;1.02;;
56718;SDS011;42597;40.636;0.278;2024-01-15T07:20:41;3.33;;;0.93;;
56718;SDS011;42597;40.636;0.278;2024-01-15T07:23:07;2.42;;;1.20;;
56718;SDS011;42597;40.636;0.278;2024-01-15T07:25:32;6.32;;;1.95;;
56718;SDS011;42597;40.636;0.278;2024-01-15T07:27:58;7.20;;;2.45;;
56718;SDS011;42597;40.636;0.278;2024-01-15T07:30:23;4.00;;;1.65;;
56718;SDS011;42597;40.636;0.278;2024-01-15T07:32:49;3.85;;;1.63;;
56718;SDS011;42597;40.636;0.278;2024-01-15T07:35:15;4.07;;;1.63;;
56718;SDS011;42597;40.636;0.278;2024-01-15T07:37:40;3.25;;;1.33;;
56718;SDS011;42597;40.636;0.278;2024-01-15T07:40:06;6.70;;;1.85;;
56718;SDS011;42597;40.636;0.278;2024-01-15T07:42:34;4.60;;;1.77;;
56718;SDS011;42597;40.636;0.278;2024-01-15T07:45:00;5.47;;;1.80;;
56718;SDS011;42597;40.636;0.278;2024-01-15T07:47:26;2.05;;;1.10;;
56718;SDS011;42597;40.636;0.278;2024-01-15T07:49:52;5.65;;;1.60;;
56718;SDS011;42597;40.636;0.278;2024-01-15T07:52:18;4.65;;;1.50;;
56718;SDS011;42597;40.636;0.278;2024-01-15T07:54:44;5.32;;;3.42;;
56718;SDS011;42597;40.636;0.278;2024-01-15T07:57:10;4.53;;;1.60;;
56718;SDS011;42597;40.636;0.278;2024-01-15T07:59:36;3.42;;;1.60;;
56718;SDS011;42597;40.636;0.278;2024-01-15T08:02:01;2.55;;;1.20;;
56718;SDS011;42597;40.636;0.278;2024-01-15T08:04:27;3.88;;;1.70;;
56718;SDS011;42597;40.636;0.278;2024-01-15T08:06:53;5.57;;;1.70;;
56718;SDS011;42597;40.636;0.278;2024-01-15T08:09:19;6.72;;;1.58;;
56718;SDS011;42597;40.636;0.278;2024-01-15T08:11:44;2.88;;;1.38;;
56718;SDS011;42597;40.636;0.278;2024-01-15T08:14:10;2.65;;;1.45;;
56718;SDS011;42597;40.636;0.278;2024-01-15T08:16:37;2.95;;;1.25;;
56718;SDS011;42597;40.636;0.278;2024-01-15T08:19:03;7.00;;;3.30;;
56718;SDS011;42597;40.636;0.278;2024-01-15T08:21:29;4.43;;;1.65;;
56718;SDS011;42597;40.636;0.278;2024-01-15T08:23:58;7.00;;;1.95;;
56718;SDS011;42597;40.636;0.278;2024-01-15T08:26:24;5.03;;;1.33;;
56718;SDS011;42597;40.636;0.278;2024-01-15T08:28:50;4.43;;;1.48;;
56718;SDS011;42597;40.636;0.278;2024-01-15T08:31:16;49.22;;;6.57;;
56718;SDS011;42597;40.636;0.278;2024-01-15T08:33:42;31.27;;;4.13;;
56718;SDS011;42597;40.636;0.278;2024-01-15T08:36:08;17.30;;;3.05;;
56718;SDS011;42597;40.636;0.278;2024-01-15T08:38:34;12.40;;;3.00;;
56718;SDS011;42597;40.636;0.278;2024-01-15T08:41:00;6.85;;;2.28;;
56718;SDS011;42597;40.636;0.278;2024-01-15T08:43:26;6.07;;;2.95;;
56718;SDS011;42597;40.636;0.278;2024-01-15T08:45:52;4.35;;;1.58;;
56718;SDS011;42597;40.636;0.278;2024-01-15T08:48:18;3.35;;;2.08;;
56718;SDS011;42597;40.636;0.278;2024-01-15T08:50:44;4.13;;;1.88;;
56718;SDS011;42597;40.636;0.278;2024-01-15T08:53:12;11.52;;;2.97;;
56718;SDS011;42597;40.636;0.278;2024-01-15T08:55:38;21.13;;;11.68;;
56718;SDS011;42597;40.636;0.278;2024-01-15T08:58:04;17.17;;;13.13;;
56718;SDS011;42597;40.636;0.278;2024-01-15T09:00:31;17.38;;;10.70;;
56718;SDS011;42597;40.636;0.278;2024-01-15T09:02:56;16.42;;;8.80;;
56718;SDS011;42597;40.636;0.278;2024-01-15T09:05:22;9.52;;;4.03;;
56718;SDS011;42597;40.636;0.278;2024-01-15T09:07:48;17.40;;;4.88;;
56718;SDS011;42597;40.636;0.278;2024-01-15T09:10:14;7.70;;;3.17;;
56718;SDS011;42597;40.636;0.278;2024-01-15T09:12:39;8.18;;;3.35;;
56718;SDS011;42597;40.636;0.278;2024-01-15T09:15:05;4.03;;;1.92;;
56718;SDS011;42597;40.636;0.278;2024-01-15T09:17:31;5.40;;;2.50;;
56718;SDS011;42597;40.636;0.278;2024-01-15T09:19:57;11.13;;;3.08;;
56718;SDS011;42597;40.636;0.278;2024-01-15T09:22:23;4.18;;;2.13;;
56718;SDS011;42597;40.636;0.278;2024-01-15T09:24:48;5.70;;;2.60;;
56718;SDS011;42597;40.636;0.278;2024-01-15T09:27:14;34.03;;;6.32;;
56718;SDS011;42597;40.636;0.278;2024-01-15T09:29:40;15.63;;;6.57;;
56718;SDS011;42597;40.636;0.278;2024-01-15T09:32:07;18.48;;;11.18;;
56718;SDS011;42597;40.636;0.278;2024-01-15T09:34:33;18.15;;;9.80;;
56718;SDS011;42597;40.636;0.278;2024-01-15T09:36:59;8.85;;;4.75;;
56718;SDS011;42597;40.636;0.278;2024-01-15T09:39:25;10.80;;;5.25;;
56718;SDS011;42597;40.636;0.278;2024-01-15T09:41:52;16.85;;;4.10;;
56718;SDS011;42597;40.636;0.278;2024-01-15T09:44:18;22.63;;;14.88;;
56718;SDS011;42597;40.636;0.278;2024-01-15T09:46:45;13.57;;;6.90;;
56718;SDS011;42597;40.636;0.278;2024-01-15T09:49:14;10.95;;;6.75;;
56718;SDS011;42597;40.636;0.278;2024-01-15T09:51:40;12.60;;;7.57;;
56718;SDS011;42597;40.636;0.278;2024-01-15T09:54:07;14.52;;;7.55;;
56718;SDS011;42597;40.636;0.278;2024-01-15T09:56:33;14.63;;;5.97;;
56718;SDS011;42597;40.636;0.278;2024-01-15T09:59:00;13.30;;;5.25;;
56718;SDS011;42597;40.636;0.278;2024-01-15T10:01:26;3.55;;;1.85;;
56718;SDS011;42597;40.636;0.278;2024-01-15T10:03:52;4.90;;;2.13;;
56718;SDS011;42597;40.636;0.278;2024-01-15T10:06:20;5.40;;;3.10;;
56718;SDS011;42597;40.636;0.278;2024-01-15T10:08:48;13.25;;;6.78;;
56718;SDS011;42597;40.636;0.278;2024-01-15T10:11:15;8.30;;;3.00;;
56718;SDS011;42597;40.636;0.278;2024-01-15T10:13:43;7.88;;;3.90;;
56718;SDS011;42597;40.636;0.278;2024-01-15T10:16:09;5.28;;;2.53;;
56718;SDS011;42597;40.636;0.278;2024-01-15T10:18:34;5.35;;;2.70;;
56718;SDS011;42597;40.636;0.278;2024-01-15T10:21:02;5.80;;;2.35;;
56718;SDS011;42597;40.636;0.278;2024-01-15T10:23:29;9.43;;;2.83;;
56718;SDS011;42597;40.636;0.278;2024-01-15T10:25:57;4.85;;;1.25;;
56718;SDS011;42597;40.636;0.278;2024-01-15T10:28:23;9.48;;;2.03;;
56718;SDS011;42597;40.636;0.278;2024-01-15T10:30:52;4.82;;;2.25;;
56718;SDS011;42597;40.636;0.278;2024-01-15T10:33:22;5.95;;;2.60;;
56718;SDS011;42597;40.636;0.278;2024-01-15T10:35:55;4.53;;;2.20;;
56718;SDS011;42597;40.636;0.278;2024-01-15T10:38:22;10.10;;;2.88;;
56718;SDS011;42597;40.636;0.278;2024-01-15T10:40:55;3.97;;;1.50;;
56718;SDS011;42597;40.636;0.278;2024-01-15T10:43:21;7.55;;;2.33;;
56718;SDS011;42597;40.636;0.278;2024-01-15T10:45:48;6.50;;;2.58;;
56718;SDS011;42597;40.636;0.278;2024-01-15T10:48:18;12.32;;;2.15;;
56718;SDS011;42597;40.636;0.278;2024-01-15T10:50:47;2.30;;;0.90;;
56718;SDS011;42597;40.636;0.278;2024-01-15T10:53:14;3.45;;;1.88;;
56718;SDS011;42597;40.636;0.278;2024-01-15T10:55:41;2.80;;;0.80;;
56718;SDS011;42597;40.636;0.278;2024-01-15T10:58:08;1.60;;;0.70;;
56718;SDS011;42597;40.636;0.278;2024-01-15T11:00:34;4.60;;;1.90;;
56718;SDS011;42597;40.636;0.278;2024-01-15T11:03:03;5.25;;;2.53;;
56718;SDS011;42597;40.636;0.278;2024-01-15T11:05:41;6.40;;;3.08;;
56718;SDS011;42597;40.636;0.278;2024-01-15T11:08:08;4.63;;;2.25;;
56718;SDS011;42597;40.636;0.278;2024-01-15T11:10:38;5.10;;;2.60;;
56718;SDS011;42597;40.636;0.278;2024-01-15T11:15:30;4.45;;;2.28;;
56718;SDS011;42597;40.636;0.278;2024-01-15T11:17:58;5.55;;;2.22;;
56718;SDS011;42597;40.636;0.278;2024-01-15T11:20:30;4.43;;;1.63;;
56718;SDS011;42597;40.636;0.278;2024-01-15T11:22:57;0.98;;;0.70;;
56718;SDS011;42597;40.636;0.278;2024-01-15T11:25:24;4.25;;;1.10;;
56718;SDS011;42597;40.636;0.278;2024-01-15T11:28:02;2.75;;;1.13;;
56718;SDS011;42597;40.636;0.278;2024-01-15T11:30:29;3.25;;;0.88;;
56718;SDS011;42597;40.636;0.278;2024-01-15T11:32:54;1.08;;;0.73;;
56718;SDS011;42597;40.636;0.278;2024-01-15T11:35:20;2.13;;;1.13;;
56718;SDS011;42597;40.636;0.278;2024-01-15T11:40:21;5.75;;;1.27;;
56718;SDS011;42597;40.636;0.278;2024-01-15T11:43:03;2.55;;;1.52;;
56718;SDS011;42597;40.636;0.278;2024-01-15T11:45:30;2.22;;;1.08;;
56718;SDS011;42597;40.636;0.278;2024-01-15T11:50:44;5.85;;;1.40;;
56718;SDS011;42597;40.636;0.278;2024-01-15T11:56:02;2.65;;;1.20;;
56718;SDS011;42597;40.636;0.278;2024-01-15T11:58:31;5.35;;;1.20;;
56718;SDS011;42597;40.636;0.278;2024-01-15T12:00:57;1.27;;;0.65;;
56718;SDS011;42597;40.636;0.278;2024-01-15T12:03:23;3.08;;;1.20;;
56718;SDS011;42597;40.636;0.278;2024-01-15T12:05:49;1.73;;;0.85;;
56718;SDS011;42597;40.636;0.278;2024-01-15T12:08:21;1.85;;;1.15;;
56718;SDS011;42597;40.636;0.278;2024-01-15T12:10:50;3.22;;;1.40;;
56718;SDS011;42597;40.636;0.278;2024-01-15T12:13:16;0.95;;;0.70;;
56718;SDS011;42597;40.636;0.278;2024-01-15T12:15:45;2.95;;;0.50;;
56718;SDS011;42597;40.636;0.278;2024-01-15T12:18:12;2.65;;;0.75;;
56718;SDS011;42597;40.636;0.278;2024-01-15T12:20:40;2.38;;;1.10;;
56718;SDS011;42597;40.636;0.278;2024-01-15T12:23:07;1.90;;;0.95;;
56718;SDS011;42597;40.636;0.278;2024-01-15T12:25:33;0.63;;;0.60;;
56718;SDS011;42597;40.636;0.278;2024-01-15T12:27:59;1.95;;;1.08;;
56718;SDS011;42597;40.636;0.278;2024-01-15T12:30:30;1.42;;;1.10;;
56718;SDS011;42597;40.636;0.278;2024-01-15T12:33:05;1.35;;;0.90;;
56718;SDS011;42597;40.636;0.278;2024-01-15T12:35:33;3.05;;;1.17;;
56718;SDS011;42597;40.636;0.278;2024-01-15T12:37:59;1.92;;;1.17;;
56718;SDS011;42597;40.636;0.278;2024-01-15T12:40:29;1.27;;;0.85;;
56718;SDS011;42597;40.636;0.278;2024-01-15T12:42:55;1.40;;;0.40;;
56718;SDS011;42597;40.636;0.278;2024-01-15T12:45:21;1.65;;;0.82;;
56718;SDS011;42597;40.636;0.278;2024-01-15T12:47:47;1.75;;;1.17;;
56718;SDS011;42597;40.636;0.278;2024-01-15T12:50:13;1.15;;;0.80;;
56718;SDS011;42597;40.636;0.278;2024-01-15T12:52:42;10.70;;;6.15;;
56718;SDS011;42597;40.636;0.278;2024-01-15T12:55:08;3.42;;;0.98;;
56718;SDS011;42597;40.636;0.278;2024-01-15T12:57:34;2.80;;;1.35;;
56718;SDS011;42597;40.636;0.278;2024-01-15T13:00:01;2.22;;;0.93;;
56718;SDS011;42597;40.636;0.278;2024-01-15T13:02:31;0.90;;;0.60;;
56718;SDS011;42597;40.636;0.278;2024-01-15T13:04:58;1.75;;;0.88;;
56718;SDS011;42597;40.636;0.278;2024-01-15T13:07:24;1.00;;;0.70;;
56718;SDS011;42597;40.636;0.278;2024-01-15T13:09:50;3.03;;;1.33;;
56718;SDS011;42597;40.636;0.278;2024-01-15T13:12:19;2.88;;;1.35;;
56718;SDS011;42597;40.636;0.278;2024-01-15T13:14:45;2.35;;;1.00;;
56718;SDS011;42597;40.636;0.278;2024-01-15T13:17:12;2.35;;;1.17;;
56718;SDS011;42597;40.636;0.278;2024-01-15T13:19:39;6.57;;;3.75;;
56718;SDS011;42597;40.636;0.278;2024-01-15T13:22:05;2.95;;;1.30;;
56718;SDS011;42597;40.636;0.278;2024-01-15T13:24:33;6.28;;;2.65;;
56718;SDS011;42597;40.636;0.278;2024-01-15T13:26:58;2.05;;;1.27;;
56718;SDS011;42597;40.636;0.278;2024-01-15T13:29:25;6.60;;;5.60;;
56718;SDS011;42597;40.636;0.278;2024-01-15T13:31:50;8.18;;;2.40;;
56718;SDS011;42597;40.636;0.278;2024-01-15T13:34:16;6.45;;;2.38;;
56718;SDS011;42597;40.636;0.278;2024-01-15T13:36:42;1.75;;;1.02;;
56718;SDS011;42597;40.636;0.278;2024-01-15T13:39:07;1.88;;;1.05;;
56718;SDS011;42597;40.636;0.278;2024-01-15T13:41:34;1.35;;;0.77;;
56718;SDS011;42597;40.636;0.278;2024-01-15T13:44:00;2.92;;;1.58;;
56718;SDS011;42597;40.636;0.278;2024-01-15T13:46:26;1.77;;;0.90;;
56718;SDS011;42597;40.636;0.278;2024-01-15T13:48:52;1.95;;;1.10;;
56718;SDS011;42597;40.636;0.278;2024-01-15T13:51:18;1.10;;;0.60;;
56718;SDS011;42597;40.636;0.278;2024-01-15T13:53:43;0.70;;;0.40;;
56718;SDS011;42597;40.636;0.278;2024-01-15T13:56:09;0.30;;;0.30;;
56718;SDS011;42597;40.636;0.278;2024-01-15T13:58:35;2.00;;;0.55;;
56718;SDS011;42597;40.636;0.278;2024-01-15T14:01:02;0.65;;;0.40;;
56718;SDS011;42597;40.636;0.278;2024-01-15T14:03:31;4.10;;;0.98;;
56718;SDS011;42597;40.636;0.278;2024-01-15T14:05:57;5.25;;;1.90;;
56718;SDS011;42597;40.636;0.278;2024-01-15T14:08:23;0.52;;;0.52;;
56718;SDS011;42597;40.636;0.278;2024-01-15T14:10:49;2.20;;;0.73;;
56718;SDS011;42597;40.636;0.278;2024-01-15T14:13:14;0.40;;;0.30;;
56718;SDS011;42597;40.636;0.278;2024-01-15T14:15:40;1.40;;;0.75;;
56718;SDS011;42597;40.636;0.278;2024-01-15T14:18:06;2.30;;;0.50;;
56718;SDS011;42597;40.636;0.278;2024-01-15T14:20:32;1.88;;;0.73;;
56718;SDS011;42597;40.636;0.278;2024-01-15T14:22:58;1.73;;;0.93;;
56718;SDS011;42597;40.636;0.278;2024-01-15T14:25:23;1.45;;;0.57;;
56718;SDS011;42597;40.636;0.278;2024-01-15T14:27:49;9.00;;;1.45;;
56718;SDS011;42597;40.636;0.278;2024-01-15T14:30:15;2.45;;;0.63;;
56718;SDS011;42597;40.636;0.278;2024-01-15T14:32:41;1.40;;;0.60;;
56718;SDS011;42597;40.636;0.278;2024-01-15T14:35:08;3.95;;;0.47;;
56718;SDS011;42597;40.636;0.278;2024-01-15T14:37:38;3.20;;;0.45;;
56718;SDS011;42597;40.636;0.278;2024-01-15T14:40:05;1.42;;;0.38;;
56718;SDS011;42597;40.636;0.278;2024-01-15T14:42:33;0.17;;;0.17;;
56718;SDS011;42597;40.636;0.278;2024-01-15T14:44:59;5.93;;;0.90;;
56718;SDS011;42597;40.636;0.278;2024-01-15T14:47:24;1.92;;;0.88;;
56718;SDS011;42597;40.636;0.278;2024-01-15T14:49:50;0.35;;;0.35;;